sensor_id;sensor_type;location;lat;lon;timestamp;temperature;humidity
5196;DHT22;2617;51.006;12.436;2023-04-03T00:02:33;1.90;99.90
5196;DHT22;2617;51.006;12.436;2023-04-03T00:07:35;1.80;99.90
5196;DHT22;2617;51.006;12.436;2023-04-03T00:12:38;1.70;99.90
5196;DHT22;2617;51.006;12.436;2023-04-03T00:17:41;1.60;99.90
5196;DHT22;2617;51.006;12.436;2023-04-03T00:22:43;1.60;99.90
5196;DHT22;2617;51.006;12.436;2023-04-03T00:27:46;1.40;99.90
5196;DHT22;2617;51.006;12.436;2023-04-03T00:32:50;1.30;99.90
5196;DHT22;2617;51.006;12.436;2023-04-03T00:37:52;1.30;99.90
5196;DHT22;2617;51.006;12.436;2023-04-03T00:42:57;1.20;99.90
5196;DHT22;2617;51.006;12.436;2023-04-03T00:47:58;1.10;99.90
5196;DHT22;2617;51.006;12.436;2023-04-03T00:53:01;1.10;99.90
5196;DHT22;2617;51.006;12.436;2023-04-03T00:58:03;1.10;99.90
5196;DHT22;2617;51.006;12.436;2023-04-03T01:03:06;1.00;99.90
5196;DHT22;2617;51.006;12.436;2023-04-03T01:08:08;1.00;99.90
5196;DHT22;2617;51.006;12.436;2023-04-03T01:13:19;1.00;99.90
5196;DHT22;2617;51.006;12.436;2023-04-03T01:18:22;0.90;99.90
5196;DHT22;2617;51.006;12.436;2023-04-03T01:23:42;0.90;99.90
5196;DHT22;2617;51.006;12.436;2023-04-03T01:28:44;0.90;99.90
5196;DHT22;2617;51.006;12.436;2023-04-03T01:33:47;0.80;99.90
5196;DHT22;2617;51.006;12.436;2023-04-03T01:38:49;0.80;99.90
5196;DHT22;2617;51.006;12.436;2023-04-03T01:43:52;0.80;99.90
5196;DHT22;2617;51.006;12.436;2023-04-03T01:48:54;0.70;99.90
5196;DHT22;2617;51.006;12.436;2023-04-03T01:53:56;0.60;99.90
5196;DHT22;2617;51.006;12.436;2023-04-03T01:58:59;0.50;99.90
5196;DHT22;2617;51.006;12.436;2023-04-03T02:04:03;0.50;99.90
5196;DHT22;2617;51.006;12.436;2023-04-03T02:09:05;0.50;99.90
5196;DHT22;2617;51.006;12.436;2023-04-03T02:14:08;0.50;99.90
5196;DHT22;2617;51.006;12.436;2023-04-03T02:19:10;0.40;99.90
5196;DHT22;2617;51.006;12.436;2023-04-03T02:24:12;0.40;99.90
5196;DHT22;2617;51.006;12.436;2023-04-03T02:29:15;0.30;99.90
5196;DHT22;2617;51.006;12.436;2023-04-03T02:34:18;0.20;99.90
5196;DHT22;2617;51.006;12.436;2023-04-03T02:39:20;0.20;99.90
5196;DHT22;2617;51.006;12.436;2023-04-03T02:44:23;0.10;99.90
5196;DHT22;2617;51.006;12.436;2023-04-03T02:49:26;0.00;99.90
5196;DHT22;2617;51.006;12.436;2023-04-03T02:54:29;-0.10;99.90
5196;DHT22;2617;51.006;12.436;2023-04-03T02:59:33;-0.10;99.90
5196;DHT22;2617;51.006;12.436;2023-04-03T03:04:35;-0.20;99.90
5196;DHT22;2617;51.006;12.436;2023-04-03T03:09:38;-0.20;99.90
5196;DHT22;2617;51.006;12.436;2023-04-03T03:14:40;-0.30;99.90
5196;DHT22;2617;51.006;12.436;2023-04-03T03:19:42;-0.30;99.90
5196;DHT22;2617;51.006;12.436;2023-04-03T03:24:45;-0.40;99.90
5196;DHT22;2617;51.006;12.436;2023-04-03T03:29:47;-0.40;99.90
5196;DHT22;2617;51.006;12.436;2023-04-03T03:34:50;-0.40;99.90
5196;DHT22;2617;51.006;12.436;2023-04-03T03:39:53;-0.50;99.90
5196;DHT22;2617;51.006;12.436;2023-04-03T03:44:55;-0.50;99.90
5196;DHT22;2617;51.006;12.436;2023-04-03T03:49:58;-0.60;99.90
5196;DHT22;2617;51.006;12.436;2023-04-03T03:55:00;-0.70;99.90
5196;DHT22;2617;51.006;12.436;2023-04-03T04:00:04;-0.80;99.90
5196;DHT22;2617;51.006;12.436;2023-04-03T04:05:07;-0.80;99.90
5196;DHT22;2617;51.006;12.436;2023-04-03T04:10:10;-0.90;99.90
5196;DHT22;2617;51.006;12.436;2023-04-03T04:15:12;-0.90;99.90
5196;DHT22;2617;51.006;12.436;2023-04-03T04:20:15;-1.00;99.90
5196;DHT22;2617;51.006;12.436;2023-04-03T04:25:17;-1.10;99.90
5196;DHT22;2617;51.006;12.436;2023-04-03T04:30:20;-1.30;99.90
5196;DHT22;2617;51.006;12.436;2023-04-03T04:35:22;-1.30;99.90
5196;DHT22;2617;51.006;12.436;2023-04-03T04:40:24;-1.30;99.90
5196;DHT22;2617;51.006;12.436;2023-04-03T04:45:27;-1.40;99.90
5196;DHT22;2617;51.006;12.436;2023-04-03T04:50:29;-1.50;99.90
5196;DHT22;2617;51.006;12.436;2023-04-03T04:55:32;-1.50;99.90
5196;DHT22;2617;51.006;12.436;2023-04-03T05:00:35;-1.50;99.90
5196;DHT22;2617;51.006;12.436;2023-04-03T05:05:37;-1.50;99.90
5196;DHT22;2617;51.006;12.436;2023-04-03T05:10:40;-1.30;99.90
5196;DHT22;2617;51.006;12.436;2023-04-03T05:15:43;0.80;99.90
5196;DHT22;2617;51.006;12.436;2023-04-03T05:20:47;0.80;99.90
5196;DHT22;2617;51.006;12.436;2023-04-03T05:25:49;2.50;99.90
5196;DHT22;2617;51.006;12.436;2023-04-03T05:30:53;2.40;99.90
5196;DHT22;2617;51.006;12.436;2023-04-03T05:36:01;2.50;99.90
5196;DHT22;2617;51.006;12.436;2023-04-03T05:40:59;2.50;99.90
5196;DHT22;2617;51.006;12.436;2023-04-03T05:46:01;1.90;99.90
5196;DHT22;2617;51.006;12.436;2023-04-03T05:51:05;0.40;99.90
5196;DHT22;2617;51.006;12.436;2023-04-03T05:56:08;-0.60;99.90
5196;DHT22;2617;51.006;12.436;2023-04-03T06:01:11;-0.60;99.90
5196;DHT22;2617;51.006;12.436;2023-04-03T06:06:13;-0.60;99.90
5196;DHT22;2617;51.006;12.436;2023-04-03T06:11:15;-0.60;99.90
5196;DHT22;2617;51.006;12.436;2023-04-03T06:16:18;-0.50;99.90
5196;DHT22;2617;51.006;12.436;2023-04-03T06:21:20;-0.50;99.90
5196;DHT22;2617;51.006;12.436;2023-04-03T06:26:23;-0.30;99.90
5196;DHT22;2617;51.006;12.436;2023-04-03T06:31:25;-0.30;99.90
5196;DHT22;2617;51.006;12.436;2023-04-03T06:36:29;-0.20;99.90
5196;DHT22;2617;51.006;12.436;2023-04-03T06:41:31;-0.20;99.90
5196;DHT22;2617;51.006;12.436;2023-04-03T06:46:33;-0.10;99.90
5196;DHT22;2617;51.006;12.436;2023-04-03T06:51:36;-0.10;99.90
5196;DHT22;2617;51.006;12.436;2023-04-03T06:56:38;0.00;99.90
5196;DHT22;2617;51.006;12.436;2023-04-03T07:01:41;0.10;99.90
5196;DHT22;2617;51.006;12.436;2023-04-03T07:06:43;0.20;99.90
5196;DHT22;2617;51.006;12.436;2023-04-03T07:11:45;0.50;99.90
5196;DHT22;2617;51.006;12.436;2023-04-03T07:16:48;0.50;99.90
5196;DHT22;2617;51.006;12.436;2023-04-03T07:21:50;0.60;99.90
5196;DHT22;2617;51.006;12.436;2023-04-03T07:26:53;0.90;99.90
5196;DHT22;2617;51.006;12.436;2023-04-03T07:31:56;0.60;99.90
5196;DHT22;2617;51.006;12.436;2023-04-03T07:36:58;0.60;99.90
5196;DHT22;2617;51.006;12.436;2023-04-03T07:42:02;0.50;99.90
5196;DHT22;2617;51.006;12.436;2023-04-03T07:47:04;0.50;99.90
5196;DHT22;2617;51.006;12.436;2023-04-03T07:52:07;0.60;99.90
5196;DHT22;2617;51.006;12.436;2023-04-03T07:57:09;0.60;99.90
5196;DHT22;2617;51.006;12.436;2023-04-03T08:02:12;0.50;99.90
5196;DHT22;2617;51.006;12.436;2023-04-03T08:07:14;0.60;99.90
5196;DHT22;2617;51.006;12.436;2023-04-03T08:12:16;0.50;99.90
5196;DHT22;2617;51.006;12.436;2023-04-03T08:17:19;0.90;99.90
5196;DHT22;2617;51.006;12.436;2023-04-03T08:22:21;1.20;99.90
5196;DHT22;2617;51.006;12.436;2023-04-03T08:27:23;1.60;99.90
5196;DHT22;2617;51.006;12.436;2023-04-03T08:32:26;1.90;99.90
5196;DHT22;2617;51.006;12.436;2023-04-03T08:37:28;1.90;99.90
5196;DHT22;2617;51.006;12.436;2023-04-03T08:42:45;1.70;99.90
5196;DHT22;2617;51.006;12.436;2023-04-03T08:48:06;1.60;99.90
5196;DHT22;2617;51.006;12.436;2023-04-03T08:53:13;2.10;99.90
5196;DHT22;2617;51.006;12.436;2023-04-03T08:58:18;2.40;99.30
5196;DHT22;2617;51.006;12.436;2023-04-03T09:03:19;2.40;98.30
5196;DHT22;2617;51.006;12.436;2023-04-03T09:08:27;2.70;97.00
5196;DHT22;2617;51.006;12.436;2023-04-03T09:13:35;2.90;97.40
5196;DHT22;2617;51.006;12.436;2023-04-03T09:18:38;3.20;97.30
5196;DHT22;2617;51.006;12.436;2023-04-03T09:23:46;3.20;97.20
5196;DHT22;2617;51.006;12.436;2023-04-03T09:28:48;3.40;94.10
5196;DHT22;2617;51.006;12.436;2023-04-03T09:33:52;3.30;93.00
5196;DHT22;2617;51.006;12.436;2023-04-03T09:39:07;3.20;94.90
5196;DHT22;2617;51.006;12.436;2023-04-03T09:44:21;2.80;94.50
5196;DHT22;2617;51.006;12.436;2023-04-03T09:49:25;3.00;93.80
5196;DHT22;2617;51.006;12.436;2023-04-03T09:54:32;3.00;93.80
5196;DHT22;2617;51.006;12.436;2023-04-03T09:59:43;2.90;94.20
5196;DHT22;2617;51.006;12.436;2023-04-03T10:04:44;2.90;92.80
5196;DHT22;2617;51.006;12.436;2023-04-03T10:09:54;2.90;91.20
5196;DHT22;2617;51.006;12.436;2023-04-03T10:14:55;2.90;91.20
5196;DHT22;2617;51.006;12.436;2023-04-03T10:20:07;3.40;91.10
5196;DHT22;2617;51.006;12.436;2023-04-03T10:36:00;3.90;92.40
5196;DHT22;2617;51.006;12.436;2023-04-03T10:41:17;3.70;88.00
5196;DHT22;2617;51.006;12.436;2023-04-03T10:46:23;3.40;90.50
5196;DHT22;2617;51.006;12.436;2023-04-03T10:51:35;3.40;90.50
5196;DHT22;2617;51.006;12.436;2023-04-03T10:56:50;3.80;91.20
5196;DHT22;2617;51.006;12.436;2023-04-03T11:01:55;3.50;91.90
5196;DHT22;2617;51.006;12.436;2023-04-03T11:07:00;3.40;91.80
5196;DHT22;2617;51.006;12.436;2023-04-03T11:12:04;4.20;89.50
5196;DHT22;2617;51.006;12.436;2023-04-03T11:17:15;4.60;88.80
5196;DHT22;2617;51.006;12.436;2023-04-03T11:22:39;4.70;87.40
5196;DHT22;2617;51.006;12.436;2023-04-03T11:27:46;4.70;86.70
5196;DHT22;2617;51.006;12.436;2023-04-03T11:33:16;4.60;86.70
5196;DHT22;2617;51.006;12.436;2023-04-03T11:38:24;4.60;86.70
5196;DHT22;2617;51.006;12.436;2023-04-03T11:43:29;3.80;83.10
5196;DHT22;2617;51.006;12.436;2023-04-03T11:48:42;4.10;85.90
5196;DHT22;2617;51.006;12.436;2023-04-03T11:53:45;4.80;81.20
5196;DHT22;2617;51.006;12.436;2023-04-03T12:04:24;4.00;81.30
5196;DHT22;2617;51.006;12.436;2023-04-03T12:09:29;4.10;81.50
5196;DHT22;2617;51.006;12.436;2023-04-03T12:14:34;4.50;85.70
5196;DHT22;2617;51.006;12.436;2023-04-03T12:19:37;4.40;85.60
5196;DHT22;2617;51.006;12.436;2023-04-03T12:24:40;4.60;85.00
5196;DHT22;2617;51.006;12.436;2023-04-03T12:29:46;4.10;83.60
5196;DHT22;2617;51.006;12.436;2023-04-03T12:34:57;4.50;76.10
5196;DHT22;2617;51.006;12.436;2023-04-03T12:40:09;5.10;76.90
5196;DHT22;2617;51.006;12.436;2023-04-03T12:45:25;5.10;76.90
5196;DHT22;2617;51.006;12.436;2023-04-03T12:50:28;4.80;81.40
5196;DHT22;2617;51.006;12.436;2023-04-03T12:55:30;4.30;79.80
5196;DHT22;2617;51.006;12.436;2023-04-03T13:00:34;4.70;83.60
5196;DHT22;2617;51.006;12.436;2023-04-03T13:05:36;4.70;83.50
5196;DHT22;2617;51.006;12.436;2023-04-03T13:10:52;4.60;85.50
5196;DHT22;2617;51.006;12.436;2023-04-03T13:15:54;4.60;83.80
5196;DHT22;2617;51.006;12.436;2023-04-03T13:20:58;4.80;82.50
5196;DHT22;2617;51.006;12.436;2023-04-03T13:26:07;4.80;82.30
5196;DHT22;2617;51.006;12.436;2023-04-03T13:31:23;4.50;86.20
5196;DHT22;2617;51.006;12.436;2023-04-03T13:36:29;4.20;90.10
5196;DHT22;2617;51.006;12.436;2023-04-03T13:41:33;4.20;89.10
5196;DHT22;2617;51.006;12.436;2023-04-03T13:46:35;4.00;88.10
5196;DHT22;2617;51.006;12.436;2023-04-03T13:51:37;4.00;88.00
5196;DHT22;2617;51.006;12.436;2023-04-03T13:56:40;4.20;87.10
5196;DHT22;2617;51.006;12.436;2023-04-03T14:07:19;4.10;83.80
5196;DHT22;2617;51.006;12.436;2023-04-03T14:12:26;4.20;85.40
5196;DHT22;2617;51.006;12.436;2023-04-03T14:17:27;4.20;85.40
5196;DHT22;2617;51.006;12.436;2023-04-03T14:22:31;4.20;85.80
5196;DHT22;2617;51.006;12.436;2023-04-03T14:27:36;4.00;85.90
5196;DHT22;2617;51.006;12.436;2023-04-03T14:32:37;3.90;87.10
5196;DHT22;2617;51.006;12.436;2023-04-03T14:37:41;3.90;88.20
5196;DHT22;2617;51.006;12.436;2023-04-03T14:42:43;3.90;88.90
5196;DHT22;2617;51.006;12.436;2023-04-03T14:47:47;3.80;87.90
5196;DHT22;2617;51.006;12.436;2023-04-03T14:52:50;3.70;90.50
5196;DHT22;2617;51.006;12.436;2023-04-03T14:57:52;4.00;87.70
5196;DHT22;2617;51.006;12.436;2023-04-03T15:02:54;3.90;87.60
5196;DHT22;2617;51.006;12.436;2023-04-03T15:07:57;3.90;89.10
5196;DHT22;2617;51.006;12.436;2023-04-03T15:12:59;3.80;88.10
5196;DHT22;2617;51.006;12.436;2023-04-03T15:18:02;3.70;88.60
5196;DHT22;2617;51.006;12.436;2023-04-03T15:23:04;3.60;90.20
5196;DHT22;2617;51.006;12.436;2023-04-03T15:28:08;3.40;91.10
5196;DHT22;2617;51.006;12.436;2023-04-03T15:33:09;3.50;91.70
5196;DHT22;2617;51.006;12.436;2023-04-03T15:38:12;3.40;91.00
5196;DHT22;2617;51.006;12.436;2023-04-03T15:43:14;3.40;91.20
5196;DHT22;2617;51.006;12.436;2023-04-03T15:48:17;3.40;91.40
5196;DHT22;2617;51.006;12.436;2023-04-03T15:53:19;3.40;92.10
5196;DHT22;2617;51.006;12.436;2023-04-03T15:58:21;3.40;91.60
5196;DHT22;2617;51.006;12.436;2023-04-03T16:03:24;3.20;91.00
5196;DHT22;2617;51.006;12.436;2023-04-03T16:08:26;3.10;88.10
5196;DHT22;2617;51.006;12.436;2023-04-03T16:13:28;3.10;90.10
5196;DHT22;2617;51.006;12.436;2023-04-03T16:18:31;3.00;91.00
5196;DHT22;2617;51.006;12.436;2023-04-03T16:23:33;3.00;91.50
5196;DHT22;2617;51.006;12.436;2023-04-03T16:28:36;2.90;91.80
5196;DHT22;2617;51.006;12.436;2023-04-03T16:33:39;2.80;90.00
5196;DHT22;2617;51.006;12.436;2023-04-03T16:38:42;2.80;90.00
5196;DHT22;2617;51.006;12.436;2023-04-03T16:43:45;2.70;92.30
5196;DHT22;2617;51.006;12.436;2023-04-03T16:48:48;2.60;92.10
5196;DHT22;2617;51.006;12.436;2023-04-03T16:53:50;2.60;92.10
5196;DHT22;2617;51.006;12.436;2023-04-03T16:58:52;2.60;92.70
5196;DHT22;2617;51.006;12.436;2023-04-03T17:03:56;2.50;89.70
5196;DHT22;2617;51.006;12.436;2023-04-03T17:08:59;2.50;88.50
5196;DHT22;2617;51.006;12.436;2023-04-03T17:14:01;2.50;88.50
5196;DHT22;2617;51.006;12.436;2023-04-03T17:19:04;2.50;91.00
5196;DHT22;2617;51.006;12.436;2023-04-03T17:24:07;2.40;91.00
5196;DHT22;2617;51.006;12.436;2023-04-03T17:29:09;2.40;90.90
5196;DHT22;2617;51.006;12.436;2023-04-03T17:34:13;2.40;91.50
5196;DHT22;2617;51.006;12.436;2023-04-03T17:39:16;2.40;91.50
5196;DHT22;2617;51.006;12.436;2023-04-03T17:44:18;2.30;92.30
5196;DHT22;2617;51.006;12.436;2023-04-03T17:49:21;2.30;92.40
5196;DHT22;2617;51.006;12.436;2023-04-03T17:54:23;2.30;93.10
5196;DHT22;2617;51.006;12.436;2023-04-03T17:59:26;2.20;93.90
5196;DHT22;2617;51.006;12.436;2023-04-03T18:04:28;2.20;94.10
5196;DHT22;2617;51.006;12.436;2023-04-03T18:09:31;2.20;91.70
5196;DHT22;2617;51.006;12.436;2023-04-03T18:14:33;2.20;91.00
5196;DHT22;2617;51.006;12.436;2023-04-03T18:19:35;2.10;92.00
5196;DHT22;2617;51.006;12.436;2023-04-03T18:24:38;2.20;90.80
5196;DHT22;2617;51.006;12.436;2023-04-03T18:29:42;2.20;92.00
5196;DHT22;2617;51.006;12.436;2023-04-03T18:34:44;2.10;91.90
5196;DHT22;2617;51.006;12.436;2023-04-03T18:39:47;2.10;91.90
5196;DHT22;2617;51.006;12.436;2023-04-03T18:44:50;2.10;90.90
5196;DHT22;2617;51.006;12.436;2023-04-03T18:49:52;2.10;91.10
5196;DHT22;2617;51.006;12.436;2023-04-03T18:54:54;2.10;90.70
5196;DHT22;2617;51.006;12.436;2023-04-03T18:59:57;2.10;90.50
5196;DHT22;2617;51.006;12.436;2023-04-03T19:05:00;2.10;90.30
5196;DHT22;2617;51.006;12.436;2023-04-03T19:10:03;2.10;90.30
5196;DHT22;2617;51.006;12.436;2023-04-03T19:15:07;2.10;91.00
5196;DHT22;2617;51.006;12.436;2023-04-03T19:20:11;2.10;90.90
5196;DHT22;2617;51.006;12.436;2023-04-03T19:25:14;2.00;90.90
5196;DHT22;2617;51.006;12.436;2023-04-03T19:30:17;2.00;92.90
5196;DHT22;2617;51.006;12.436;2023-04-03T19:35:21;1.90;92.80
5196;DHT22;2617;51.006;12.436;2023-04-03T19:40:23;1.90;92.80
5196;DHT22;2617;51.006;12.436;2023-04-03T19:45:25;1.90;93.20
5196;DHT22;2617;51.006;12.436;2023-04-03T19:50:28;1.90;93.30
5196;DHT22;2617;51.006;12.436;2023-04-03T19:55:30;1.90;93.50
5196;DHT22;2617;51.006;12.436;2023-04-03T20:00:32;1.90;93.60
5196;DHT22;2617;51.006;12.436;2023-04-03T20:05:35;1.90;93.60
5196;DHT22;2617;51.006;12.436;2023-04-03T20:10:37;1.90;93.20
5196;DHT22;2617;51.006;12.436;2023-04-03T20:15:41;1.90;92.80
5196;DHT22;2617;51.006;12.436;2023-04-03T20:20:44;1.90;92.10
5196;DHT22;2617;51.006;12.436;2023-04-03T20:25:46;2.00;92.30
5196;DHT22;2617;51.006;12.436;2023-04-03T20:30:49;2.00;92.30
5196;DHT22;2617;51.006;12.436;2023-04-03T20:35:51;2.00;92.40
5196;DHT22;2617;51.006;12.436;2023-04-03T20:40:53;1.90;93.00
5196;DHT22;2617;51.006;12.436;2023-04-03T20:45:58;1.90;93.40
5196;DHT22;2617;51.006;12.436;2023-04-03T20:51:08;1.80;94.30
5196;DHT22;2617;51.006;12.436;2023-04-03T20:56:10;1.80;94.10
5196;DHT22;2617;51.006;12.436;2023-04-03T21:01:19;1.80;95.20
5196;DHT22;2617;51.006;12.436;2023-04-03T21:22:03;1.70;96.90
5196;DHT22;2617;51.006;12.436;2023-04-03T21:27:06;1.70;97.60
5196;DHT22;2617;51.006;12.436;2023-04-03T21:32:08;1.70;97.90
5196;DHT22;2617;51.006;12.436;2023-04-03T21:37:10;1.70;98.70
5196;DHT22;2617;51.006;12.436;2023-04-03T21:42:13;1.60;99.00
5196;DHT22;2617;51.006;12.436;2023-04-03T21:47:16;1.60;99.50
5196;DHT22;2617;51.006;12.436;2023-04-03T21:52:18;1.60;99.80
5196;DHT22;2617;51.006;12.436;2023-04-03T21:57:21;1.60;99.90
5196;DHT22;2617;51.006;12.436;2023-04-03T22:02:23;1.70;99.90
5196;DHT22;2617;51.006;12.436;2023-04-03T22:07:25;1.60;99.90
5196;DHT22;2617;51.006;12.436;2023-04-03T22:12:28;1.60;99.90
5196;DHT22;2617;51.006;12.436;2023-04-03T22:17:30;1.60;99.90
5196;DHT22;2617;51.006;12.436;2023-04-03T22:22:33;1.60;99.90
5196;DHT22;2617;51.006;12.436;2023-04-03T22:27:35;1.60;99.90
5196;DHT22;2617;51.006;12.436;2023-04-03T22:32:38;1.50;99.90
5196;DHT22;2617;51.006;12.436;2023-04-03T22:37:41;1.50;99.90
5196;DHT22;2617;51.006;12.436;2023-04-03T22:42:46;1.40;99.90
5196;DHT22;2617;51.006;12.436;2023-04-03T22:47:48;1.40;99.90
5196;DHT22;2617;51.006;12.436;2023-04-03T22:52:51;1.40;99.90
5196;DHT22;2617;51.006;12.436;2023-04-03T22:57:53;1.40;99.90
5196;DHT22;2617;51.006;12.436;2023-04-03T23:02:57;1.40;99.90
5196;DHT22;2617;51.006;12.436;2023-04-03T23:08:00;1.30;99.90
5196;DHT22;2617;51.006;12.436;2023-04-03T23:13:02;1.30;99.90
5196;DHT22;2617;51.006;12.436;2023-04-03T23:18:05;1.30;99.90
5196;DHT22;2617;51.006;12.436;2023-04-03T23:23:08;1.30;99.90
5196;DHT22;2617;51.006;12.436;2023-04-03T23:28:10;1.30;99.90
5196;DHT22;2617;51.006;12.436;2023-04-03T23:33:12;1.30;99.90
5196;DHT22;2617;51.006;12.436;2023-04-03T23:38:15;1.20;99.90
5196;DHT22;2617;51.006;12.436;2023-04-03T23:43:17;1.20;99.90
5196;DHT22;2617;51.006;12.436;2023-04-03T23:48:20;1.20;99.90
5196;DHT22;2617;51.006;12.436;2023-04-03T23:53:23;1.10;99.90
5196;DHT22;2617;51.006;12.436;2023-04-03T23:58:25;1.10;99.90
